createdAt,value
2019-05-23T00:01:58.484Z,10.03
2019-05-23T00:04:32.334Z,9.99
2019-05-23T00:07:01.960Z,9.97
2019-05-23T00:09:30.871Z,9.96
2019-05-23T00:12:08.312Z,9.94
2019-05-23T00:14:44.615Z,9.88
2019-05-23T00:17:14.114Z,9.84
2019-05-23T00:19:43.035Z,9.82
2019-05-23T00:22:12.203Z,9.92
2019-05-23T00:24:41.117Z,9.96
2019-05-23T00:27:10.002Z,9.89
2019-05-23T00:29:40.479Z,9.86
2019-05-23T00:32:16.579Z,9.80
2019-05-23T00:34:45.462Z,9.73
2019-05-23T00:37:14.437Z,9.72
2019-05-23T00:39:43.647Z,9.71
2019-05-23T00:42:12.553Z,9.86
2019-05-23T00:44:41.636Z,9.86
2019-05-23T00:47:10.526Z,9.82
2019-05-23T00:49:39.448Z,9.72
2019-05-23T00:52:08.409Z,9.64
2019-05-23T00:54:37.322Z,9.63
2019-05-23T00:57:06.216Z,9.46
2019-05-23T00:59:35.121Z,9.37
2019-05-23T01:02:04.023Z,9.27
2019-05-23T01:04:32.915Z,9.19
2019-05-23T01:07:01.785Z,9.25
2019-05-23T01:09:30.696Z,9.28
2019-05-23T01:11:59.606Z,9.34
2019-05-23T01:14:28.508Z,9.39
2019-05-23T01:16:57.432Z,9.26
2019-05-23T01:19:26.449Z,9.12
2019-05-23T01:22:02.489Z,9.39
2019-05-23T01:24:36.893Z,9.26
2019-05-23T01:27:06.624Z,9.54
2019-05-23T01:29:42.232Z,9.35
2019-05-23T01:32:30.256Z,9.23
2019-05-23T01:34:59.517Z,9.17
2019-05-23T01:37:28.419Z,9.30
2019-05-23T01:39:57.343Z,9.35
2019-05-23T01:42:26.503Z,9.30
2019-05-23T01:44:55.764Z,9.33
2019-05-23T01:47:24.664Z,9.46
2019-05-23T01:49:53.586Z,9.49
2019-05-23T01:52:22.498Z,9.44
2019-05-23T01:54:51.382Z,9.25
2019-05-23T01:57:20.309Z,9.07
2019-05-23T01:59:49.221Z,9.02
2019-05-23T02:02:18.896Z,8.97
2019-05-23T02:04:47.753Z,9.03
2019-05-23T02:07:16.898Z,9.04
2019-05-23T02:09:45.826Z,9.02
2019-05-23T02:12:14.722Z,8.96
2019-05-23T02:14:44.512Z,8.99
2019-05-23T02:17:13.430Z,8.98
2019-05-23T02:19:42.359Z,9.24
2019-05-23T02:22:12.197Z,8.98
2019-05-23T02:24:42.171Z,8.97
2019-05-23T02:27:11.055Z,9.06
2019-05-23T02:29:40.596Z,9.15
2019-05-23T02:32:09.542Z,9.01
2019-05-23T02:34:38.469Z,8.97
2019-05-23T02:37:10.573Z,8.86
2019-05-23T02:39:49.264Z,8.82
2019-05-23T02:42:37.640Z,9.15
2019-05-23T02:45:08.447Z,8.87
2019-05-23T02:47:38.187Z,9.19
2019-05-23T02:50:07.612Z,8.86
2019-05-23T02:52:39.761Z,8.77
2019-05-23T02:55:12.038Z,8.73
2019-05-23T02:57:41.178Z,8.68
2019-05-23T03:00:30.624Z,9.03
2019-05-23T03:03:04.797Z,8.79
2019-05-23T03:05:33.701Z,8.76
2019-05-23T03:08:02.635Z,8.72
2019-05-23T03:10:48.596Z,8.67
2019-05-23T03:13:17.796Z,8.63
2019-05-23T03:15:46.717Z,8.65
2019-05-23T03:18:15.778Z,8.63
2019-05-23T03:20:44.688Z,8.66
2019-05-23T03:23:13.604Z,9.04
2019-05-23T03:26:15.422Z,8.98
2019-05-23T03:28:44.335Z,9.02
2019-05-23T03:31:29.761Z,8.88
2019-05-23T03:33:49.080Z,8.76
2019-05-23T03:36:17.959Z,8.71
2019-05-23T03:38:46.879Z,8.60
2019-05-23T03:41:15.760Z,8.58
2019-05-23T03:43:44.676Z,8.58
2019-05-23T03:46:13.994Z,8.62
2019-05-23T03:48:42.933Z,8.72
2019-05-23T03:51:11.825Z,8.79
2019-05-23T03:53:41.245Z,8.85
2019-05-23T03:56:10.591Z,8.95
2019-05-23T03:58:39.529Z,8.90
2019-05-23T04:01:08.542Z,8.84
2019-05-23T04:03:40.025Z,8.79
2019-05-23T04:06:06.608Z,9.11
2019-05-23T04:08:35.499Z,8.96
2019-05-23T04:11:04.462Z,8.98
2019-05-23T04:13:33.380Z,9.09
2019-05-23T04:16:02.263Z,9.42
2019-05-23T04:18:31.221Z,9.39
2019-05-23T04:21:00.120Z,9.33
2019-05-23T04:23:29.038Z,9.31
2019-05-23T04:25:57.923Z,9.41
2019-05-23T04:28:26.853Z,9.65
2019-05-23T04:30:55.751Z,9.43
2019-05-23T04:33:24.650Z,9.43
2019-05-23T04:35:53.564Z,9.52
2019-05-23T04:38:22.467Z,9.51
2019-05-23T04:40:51.385Z,9.51
2019-05-23T04:43:20.283Z,9.47
2019-05-23T04:45:49.202Z,9.52
2019-05-23T04:48:18.100Z,9.54
2019-05-23T04:50:47.023Z,9.65
2019-05-23T04:53:15.928Z,9.74
2019-05-23T04:55:44.839Z,9.87
2019-05-23T04:58:13.829Z,9.93
2019-05-23T05:00:42.725Z,10.07
2019-05-23T05:03:11.685Z,10.15
2019-05-23T05:05:40.902Z,10.26
2019-05-23T05:08:10.014Z,10.63
2019-05-23T05:10:38.563Z,10.56
2019-05-23T05:13:07.539Z,10.64
2019-05-23T05:15:36.447Z,11.03
2019-05-23T05:18:05.421Z,10.97
2019-05-23T05:20:34.286Z,11.06
2019-05-23T05:23:03.201Z,11.16
2019-05-23T05:25:32.098Z,11.30
2019-05-23T05:28:00.973Z,11.43
2019-05-23T05:30:29.880Z,11.55
2019-05-23T05:32:58.785Z,11.74
2019-05-23T05:35:27.954Z,11.87
2019-05-23T05:37:56.949Z,12.01
2019-05-23T05:40:25.849Z,12.10
2019-05-23T05:42:54.762Z,12.29
2019-05-23T05:45:23.679Z,12.43
2019-05-23T05:47:52.566Z,12.88
2019-05-23T05:50:21.497Z,13.00
2019-05-23T05:52:50.424Z,13.24
2019-05-23T05:55:19.301Z,13.53
2019-05-23T05:57:48.181Z,13.81
2019-05-23T06:00:30.325Z,14.19
2019-05-23T06:03:04.599Z,14.57
2019-05-23T06:05:34.245Z,14.94
2019-05-23T06:08:03.494Z,15.03
2019-05-23T06:10:32.426Z,15.35
2019-05-23T06:13:01.332Z,15.50
2019-05-23T06:15:30.241Z,15.69
2019-05-23T06:17:59.253Z,17.82
2019-05-23T06:20:28.145Z,19.69
2019-05-23T06:22:57.058Z,20.96
2019-05-23T06:25:25.986Z,21.70
2019-05-23T06:27:54.871Z,22.42
2019-05-23T06:30:23.913Z,23.77
2019-05-23T06:32:52.806Z,24.71
2019-05-23T06:35:21.732Z,25.33
2019-05-23T06:37:50.669Z,26.17
2019-05-23T06:40:19.566Z,26.32
2019-05-23T06:42:50.961Z,25.80
2019-05-23T06:45:17.416Z,26.58
2019-05-23T06:47:46.322Z,26.70
2019-05-23T06:50:16.391Z,27.15
2019-05-23T06:52:45.365Z,27.63
2019-05-23T06:55:14.232Z,27.95
2019-05-23T06:57:43.139Z,26.13
2019-05-23T07:00:15.831Z,27.78
2019-05-23T07:02:45.188Z,29.16
2019-05-23T07:05:14.410Z,28.91
2019-05-23T07:07:46.712Z,29.44
2019-05-23T07:10:17.263Z,28.06
2019-05-23T07:12:46.612Z,26.85
2019-05-23T07:15:18.114Z,27.81
2019-05-23T07:17:47.286Z,28.92
2019-05-23T07:20:19.366Z,27.88
2019-05-23T07:22:48.804Z,28.22
2019-05-23T07:25:22.814Z,29.42
2019-05-23T07:27:52.135Z,27.86
2019-05-23T07:30:21.552Z,29.21
2019-05-23T07:32:50.881Z,29.16
2019-05-23T07:35:20.353Z,28.94
2019-05-23T07:37:49.439Z,28.02
2019-05-23T07:40:23.906Z,28.56
2019-05-23T07:42:53.197Z,29.13
2019-05-23T07:45:25.383Z,30.42
2019-05-23T07:47:55.073Z,30.90
2019-05-23T07:50:26.982Z,30.35
2019-05-23T07:52:57.763Z,31.55
2019-05-23T07:55:34.307Z,31.44
2019-05-23T07:58:13.588Z,31.22
2019-05-23T08:00:43.015Z,32.40
2019-05-23T08:03:12.563Z,31.53
2019-05-23T08:05:41.775Z,32.38
2019-05-23T08:08:13.596Z,30.00
2019-05-23T08:10:42.738Z,30.15
2019-05-23T08:13:12.112Z,31.26
2019-05-23T08:15:41.652Z,31.69
2019-05-23T08:18:11.323Z,31.05
2019-05-23T08:20:43.376Z,30.56
2019-05-23T08:23:13.417Z,31.03
2019-05-23T08:25:47.098Z,30.15
2019-05-23T08:28:20.991Z,30.56
2019-05-23T08:30:50.404Z,31.50
2019-05-23T08:33:23.309Z,31.59
2019-05-23T08:35:52.519Z,33.02
2019-05-23T08:38:21.633Z,33.18
2019-05-23T08:40:53.333Z,33.50
2019-05-23T08:43:23.368Z,32.96
2019-05-23T08:45:52.526Z,32.05
2019-05-23T08:48:22.375Z,31.92
2019-05-23T08:50:54.039Z,31.90
2019-05-23T08:53:30.792Z,32.00
2019-05-23T08:55:59.782Z,32.30
2019-05-23T08:58:29.509Z,32.75
2019-05-23T09:00:58.903Z,33.18
2019-05-23T09:03:28.109Z,33.55
2019-05-23T09:05:57.290Z,33.10
2019-05-23T09:08:28.814Z,32.64
2019-05-23T09:10:59.798Z,33.49
2019-05-23T09:13:27.361Z,33.10
2019-05-23T09:15:58.098Z,32.82
2019-05-23T09:18:30.295Z,31.77
2019-05-23T09:20:59.849Z,30.72
2019-05-23T09:23:29.099Z,29.88
2019-05-23T09:26:03.497Z,30.30
2019-05-23T09:28:35.396Z,30.51
2019-05-23T09:31:04.667Z,30.73
2019-05-23T09:33:33.855Z,31.85
2019-05-23T09:36:12.324Z,31.32
2019-05-23T09:38:41.518Z,32.14
2019-05-23T09:41:15.876Z,32.14
2019-05-23T09:43:45.307Z,32.59
2019-05-23T09:46:14.663Z,32.71
2019-05-23T09:48:47.723Z,32.79
2019-05-23T09:51:19.946Z,32.67
2019-05-23T09:53:49.505Z,32.15
2019-05-23T09:56:20.395Z,30.93
2019-05-23T09:58:51.382Z,31.26
2019-05-23T10:01:20.741Z,30.75
2019-05-23T10:04:01.759Z,29.68
2019-05-23T10:06:33.722Z,30.94
2019-05-23T10:09:06.228Z,30.09
2019-05-23T10:11:35.397Z,29.99
2019-05-23T10:14:07.229Z,29.45
2019-05-23T10:16:36.791Z,30.15
2019-05-23T10:19:06.286Z,29.86
2019-05-23T10:21:35.723Z,30.65
2019-05-23T10:24:07.755Z,30.47
2019-05-23T10:26:36.946Z,31.40
2019-05-23T10:29:07.979Z,30.15
2019-05-23T10:31:37.119Z,31.30
2019-05-23T10:34:06.361Z,30.42
2019-05-23T10:36:35.755Z,30.66
2019-05-23T10:39:12.813Z,31.88
2019-05-23T10:41:42.142Z,28.97
2019-05-23T10:44:14.448Z,30.23
2019-05-23T10:46:46.429Z,29.48
2019-05-23T10:49:15.690Z,29.66
2019-05-23T10:51:47.233Z,29.26
2019-05-23T10:54:16.902Z,30.33
2019-05-23T10:56:54.851Z,30.10
2019-05-23T10:59:26.827Z,30.05
2019-05-23T11:01:58.992Z,30.28
2019-05-23T11:04:28.143Z,30.03
2019-05-23T11:06:59.745Z,30.15
2019-05-23T11:09:37.706Z,30.19
2019-05-23T11:11:58.356Z,30.54
2019-05-23T11:14:28.290Z,29.98
2019-05-23T11:16:57.418Z,30.00
2019-05-23T11:19:29.700Z,30.96
2019-05-23T11:22:03.191Z,30.37
2019-05-23T11:24:29.952Z,30.62
2019-05-23T11:27:02.467Z,30.27
2019-05-23T11:29:34.077Z,30.54
2019-05-23T11:32:03.169Z,32.05
2019-05-23T11:34:34.534Z,30.25
2019-05-23T11:37:03.702Z,30.30
2019-05-23T11:39:32.875Z,30.83
2019-05-23T11:42:01.854Z,30.23
2019-05-23T11:44:33.760Z,30.15
2019-05-23T11:47:00.265Z,29.93
2019-05-23T11:49:29.340Z,30.55
2019-05-23T11:52:03.485Z,29.06
2019-05-23T11:54:32.706Z,28.63
2019-05-23T11:57:04.947Z,28.62
2019-05-23T11:59:34.149Z,28.65
2019-05-23T12:02:12.643Z,27.43
2019-05-23T12:04:45.015Z,28.35
2019-05-23T12:07:33.431Z,27.02
2019-05-23T12:10:05.848Z,27.68
2019-05-23T12:12:38.118Z,28.05
2019-05-23T12:15:08.098Z,27.62
2019-05-23T12:17:41.543Z,27.51
2019-05-23T12:20:11.150Z,27.00
2019-05-23T12:22:42.418Z,27.52
2019-05-23T12:25:21.979Z,27.64
2019-05-23T12:27:40.581Z,27.13
2019-05-23T12:30:09.846Z,26.96
2019-05-23T12:32:44.357Z,27.00
2019-05-23T12:35:13.548Z,26.56
2019-05-23T12:37:45.799Z,26.77
2019-05-23T12:40:15.048Z,26.41
2019-05-23T12:42:44.108Z,26.13
2019-05-23T12:45:13.285Z,26.45
2019-05-23T12:47:55.519Z,27.04
2019-05-23T12:50:27.146Z,26.79
2019-05-23T12:52:58.176Z,27.27
2019-05-23T12:55:27.631Z,27.41
2019-05-23T12:57:56.919Z,27.17
2019-05-23T13:00:44.078Z,26.41
2019-05-23T13:03:13.992Z,25.90
2019-05-23T13:05:46.006Z,25.76
2019-05-23T13:08:18.538Z,25.45
2019-05-23T13:10:48.135Z,25.77
2019-05-23T13:13:17.726Z,25.92
2019-05-23T13:15:49.903Z,26.20
2019-05-23T13:18:19.088Z,26.30
2019-05-23T13:20:48.154Z,26.26
2019-05-23T13:23:20.909Z,26.33
2019-05-23T13:25:46.773Z,26.90
2019-05-23T13:28:16.123Z,26.63
2019-05-23T13:30:45.455Z,26.48
2019-05-23T13:33:14.837Z,26.31
2019-05-23T13:35:43.969Z,26.61
2019-05-23T13:38:13.567Z,27.13
2019-05-23T13:40:42.946Z,27.22
2019-05-23T13:43:14.333Z,27.49
2019-05-23T13:45:43.378Z,26.88
2019-05-23T13:48:12.594Z,26.65
2019-05-23T13:50:46.368Z,27.21
2019-05-23T13:53:15.763Z,26.80
2019-05-23T13:55:48.069Z,26.75
2019-05-23T13:58:19.812Z,26.49
2019-05-23T14:00:51.778Z,26.57
2019-05-23T14:03:32.504Z,25.82
2019-05-23T14:06:01.897Z,26.43
2019-05-23T14:08:31.007Z,26.00
2019-05-23T14:11:00.062Z,26.36
2019-05-23T14:13:29.358Z,26.61
2019-05-23T14:16:04.043Z,26.78
2019-05-23T14:18:36.003Z,26.65
2019-05-23T14:21:05.135Z,26.39
2019-05-23T14:23:34.210Z,26.40
2019-05-23T14:26:03.621Z,26.47
2019-05-23T14:28:33.049Z,26.70
2019-05-23T14:31:34.871Z,26.49
2019-05-23T14:34:13.937Z,26.20
2019-05-23T14:36:52.124Z,25.46
2019-05-23T14:39:39.227Z,25.53
2019-05-23T14:42:45.575Z,25.63
2019-05-23T14:45:35.140Z,25.63
2019-05-23T14:48:12.989Z,26.01
2019-05-23T14:51:24.867Z,25.81
2019-05-23T14:53:55.219Z,25.63
2019-05-23T14:56:25.145Z,25.67
2019-05-23T14:58:54.371Z,25.68
2019-05-23T15:01:23.370Z,25.44
2019-05-23T15:03:52.205Z,25.34
2019-05-23T15:06:21.112Z,25.24
2019-05-23T15:08:51.818Z,25.24
2019-05-23T15:11:18.981Z,25.05
2019-05-23T15:13:47.824Z,25.11
2019-05-23T15:16:16.729Z,25.14
2019-05-23T15:18:45.608Z,25.19
2019-05-23T15:21:14.524Z,24.52
2019-05-23T15:23:43.405Z,24.62
2019-05-23T15:26:22.201Z,24.63
2019-05-23T15:28:41.240Z,24.71
2019-05-23T15:31:10.183Z,24.63
2019-05-23T15:33:39.087Z,24.38
2019-05-23T15:36:08.052Z,24.26
2019-05-23T15:38:36.910Z,24.50
2019-05-23T15:41:06.007Z,24.25
2019-05-23T15:43:34.842Z,23.71
2019-05-23T15:46:03.744Z,24.11
2019-05-23T15:48:32.688Z,24.37
2019-05-23T15:51:01.564Z,24.36
2019-05-23T15:53:48.422Z,24.20
2019-05-23T15:56:29.632Z,24.08
2019-05-23T15:59:17.566Z,24.14
2019-05-23T16:01:52.481Z,24.24
2019-05-23T16:04:21.398Z,24.62
2019-05-23T16:06:50.295Z,24.30
2019-05-23T16:09:29.344Z,24.27
2019-05-23T16:11:48.077Z,24.24
2019-05-23T16:14:16.980Z,24.23
2019-05-23T16:16:45.901Z,24.12
2019-05-23T16:19:14.819Z,24.22
2019-05-23T16:21:43.694Z,24.10
2019-05-23T16:24:12.592Z,24.27
2019-05-23T16:26:41.508Z,24.24
2019-05-23T16:29:10.432Z,24.17
2019-05-23T16:31:39.343Z,24.30
2019-05-23T16:34:08.330Z,24.33
2019-05-23T16:36:37.206Z,24.20
2019-05-23T16:39:07.736Z,23.88
2019-05-23T16:41:36.688Z,24.12
2019-05-23T16:44:05.742Z,24.13
2019-05-23T16:46:34.644Z,24.15
2019-05-23T16:49:03.592Z,24.10
2019-05-23T16:51:32.483Z,24.03
2019-05-23T16:54:01.478Z,23.97
2019-05-23T16:56:37.521Z,24.03
2019-05-23T16:59:22.745Z,23.97
2019-05-23T17:02:07.149Z,24.00
2019-05-23T17:05:09.417Z,23.66
2019-05-23T17:07:42.052Z,23.73
2019-05-23T17:10:24.720Z,23.74
2019-05-23T17:13:16.069Z,23.53
2019-05-23T17:15:52.074Z,23.38
2019-05-23T17:18:37.390Z,23.26
2019-05-23T17:21:40.719Z,23.17
2019-05-23T17:24:27.203Z,23.12
2019-05-23T17:27:15.206Z,22.96
2019-05-23T17:29:47.171Z,22.78
2019-05-23T17:32:18.381Z,22.67
2019-05-23T17:34:47.274Z,22.66
2019-05-23T17:37:16.161Z,22.64
2019-05-23T17:39:45.104Z,22.57
2019-05-23T17:42:14.044Z,22.44
2019-05-23T17:44:42.929Z,22.44
2019-05-23T17:47:11.836Z,22.34
2019-05-23T17:49:40.703Z,22.30
2019-05-23T17:52:09.760Z,22.26
2019-05-23T17:54:38.666Z,22.17
2019-05-23T17:57:07.759Z,22.38
2019-05-23T17:59:36.661Z,22.26
2019-05-23T18:02:05.608Z,22.26
2019-05-23T18:04:34.522Z,22.29
2019-05-23T18:07:03.473Z,22.27
2019-05-23T18:09:32.366Z,22.25
2019-05-23T18:12:01.247Z,22.19
2019-05-23T18:14:30.165Z,22.00
2019-05-23T18:16:59.070Z,21.88
2019-05-23T18:19:28.072Z,21.79
2019-05-23T18:21:56.991Z,21.68
2019-05-23T18:24:25.892Z,21.63
2019-05-23T18:26:54.842Z,21.56
2019-05-23T18:29:23.673Z,21.50
2019-05-23T18:31:52.551Z,21.42
2019-05-23T18:34:21.459Z,21.33
2019-05-23T18:36:50.348Z,21.30
2019-05-23T18:39:19.265Z,21.21
2019-05-23T18:41:48.181Z,21.16
2019-05-23T18:44:17.088Z,21.11
2019-05-23T18:46:47.184Z,21.31
2019-05-23T18:49:16.071Z,21.07
2019-05-23T18:51:44.964Z,21.04
2019-05-23T18:54:13.864Z,20.97
2019-05-23T18:56:42.795Z,20.89
2019-05-23T18:59:11.692Z,20.74
2019-05-23T19:01:40.626Z,20.59
2019-05-23T19:04:09.638Z,20.49
2019-05-23T19:06:38.523Z,20.38
2019-05-23T19:09:08.181Z,20.55
2019-05-23T19:11:37.114Z,20.28
2019-05-23T19:14:06.054Z,20.12
2019-05-23T19:16:34.936Z,20.02
2019-05-23T19:19:03.866Z,19.83
2019-05-23T19:21:32.763Z,19.70
2019-05-23T19:24:01.706Z,19.58
2019-05-23T19:26:31.025Z,19.44
2019-05-23T19:28:59.949Z,19.39
2019-05-23T19:31:28.848Z,19.21
2019-05-23T19:33:57.757Z,19.10
2019-05-23T19:36:26.659Z,19.01
2019-05-23T19:38:55.560Z,19.23
2019-05-23T19:41:36.794Z,18.92
2019-05-23T19:43:53.369Z,18.77
2019-05-23T19:46:22.279Z,18.61
2019-05-23T19:48:51.199Z,18.37
2019-05-23T19:51:20.118Z,18.44
2019-05-23T19:53:49.036Z,18.47
2019-05-23T19:56:17.937Z,18.41
2019-05-23T19:58:46.845Z,18.29
2019-05-23T20:01:16.068Z,18.25
2019-05-23T20:03:44.927Z,18.15
2019-05-23T20:06:14.670Z,17.99
2019-05-23T20:08:43.577Z,17.88
2019-05-23T20:11:12.532Z,17.76
2019-05-23T20:13:41.422Z,17.60
2019-05-23T20:16:10.884Z,17.50
2019-05-23T20:18:39.306Z,17.45
2019-05-23T20:21:12.136Z,17.39
2019-05-23T20:23:41.048Z,17.34
2019-05-23T20:26:10.009Z,17.27
2019-05-23T20:28:40.062Z,17.49
2019-05-23T20:31:07.807Z,17.15
2019-05-23T20:33:36.717Z,17.44
2019-05-23T20:36:11.941Z,17.08
2019-05-23T20:38:37.625Z,16.94
2019-05-23T20:41:06.688Z,16.88
2019-05-23T20:43:35.498Z,17.10
2019-05-23T20:46:04.482Z,16.83
2019-05-23T20:48:33.406Z,16.76
2019-05-23T20:51:02.291Z,16.78
2019-05-23T20:53:31.693Z,16.74
2019-05-23T20:56:00.618Z,16.62
2019-05-23T20:58:29.523Z,16.48
2019-05-23T21:01:06.388Z,16.48
2019-05-23T21:03:36.262Z,16.31
2019-05-23T21:06:04.348Z,16.26
2019-05-23T21:08:33.121Z,16.12
2019-05-23T21:11:02.019Z,16.01
2019-05-23T21:13:30.916Z,15.92
2019-05-23T21:15:59.827Z,15.81
2019-05-23T21:18:28.723Z,15.75
2019-05-23T21:20:57.622Z,15.66
2019-05-23T21:23:26.539Z,15.53
2019-05-23T21:26:01.202Z,15.34
2019-05-23T21:28:30.127Z,15.30
2019-05-23T21:30:59.060Z,15.32
2019-05-23T21:33:27.961Z,15.21
2019-05-23T21:35:56.835Z,15.13
2019-05-23T21:38:25.728Z,15.08
2019-05-23T21:40:54.602Z,15.03
2019-05-23T21:43:23.510Z,14.98
2019-05-23T21:45:52.376Z,14.94
2019-05-23T21:48:21.278Z,14.92
2019-05-23T21:50:50.159Z,14.91
2019-05-23T21:53:19.137Z,14.86
2019-05-23T21:55:47.967Z,14.90
2019-05-23T21:58:16.908Z,14.94
2019-05-23T22:01:26.756Z,14.87
2019-05-23T22:04:29.722Z,15.23
2019-05-23T22:07:02.824Z,14.88
2019-05-23T22:09:31.748Z,14.84
2019-05-23T22:12:01.385Z,14.79
2019-05-23T22:14:30.278Z,14.80
2019-05-23T22:16:59.162Z,14.81
2019-05-23T22:19:28.062Z,14.68
2019-05-23T22:21:56.978Z,14.51
2019-05-23T22:24:25.892Z,14.47
2019-05-23T22:26:54.771Z,14.39
2019-05-23T22:29:23.736Z,14.52
2019-05-23T22:31:56.281Z,14.71
2019-05-23T22:34:55.862Z,14.45
2019-05-23T22:37:26.036Z,14.31
2019-05-23T22:39:54.968Z,14.28
2019-05-23T22:42:24.459Z,14.28
2019-05-23T22:44:53.351Z,14.22
2019-05-23T22:47:22.261Z,14.19
2019-05-23T22:49:51.181Z,14.15
2019-05-23T22:52:20.129Z,14.20
2019-05-23T22:54:48.962Z,14.12
2019-05-23T22:57:17.852Z,14.07
2019-05-23T22:59:46.743Z,14.20
2019-05-23T23:02:16.473Z,14.17
2019-05-23T23:04:45.399Z,14.14
2019-05-23T23:07:14.276Z,14.30
2019-05-23T23:09:43.193Z,14.20
2019-05-23T23:12:12.084Z,14.18
2019-05-23T23:14:40.979Z,13.99
2019-05-23T23:17:09.942Z,13.90
2019-05-23T23:19:38.930Z,14.15
2019-05-23T23:22:08.181Z,13.87
2019-05-23T23:24:37.089Z,13.77
2019-05-23T23:27:05.964Z,13.72
2019-05-23T23:29:34.873Z,13.70
2019-05-23T23:32:04.199Z,13.71
2019-05-23T23:34:32.703Z,13.76
2019-05-23T23:37:01.614Z,13.76
2019-05-23T23:39:30.518Z,13.64
2019-05-23T23:41:59.422Z,13.64
2019-05-23T23:44:36.499Z,13.61
2019-05-23T23:47:23.448Z,13.45
2019-05-23T23:50:10.113Z,13.28
2019-05-23T23:52:56.911Z,13.22
2019-05-23T23:55:43.256Z,13.20
2019-05-23T23:58:11.315Z,13.31
